Time;durP1;ratioP1;P1;durP2;ratioP2;P2;SDS_P1;SDS_P2;PMS_P1;PMS_P2;Temp;Humidity;BMP_temperature;BMP_pressure;BME280_temperature;BME280_humidity;BME280_pressure;Samples;Min_cycle;Max_cycle;Signal;HPM_P1;HPM_P2
2022/04/19 00:01:21;;;;;;;7.75;4.78;;;12.00;85.90;;;;;;5088785;28;20516;-73
2022/04/19 00:03:47;;;;;;;8.20;4.73;;;11.90;85.00;;;;;;5089151;28;20528;-73
2022/04/19 00:06:13;;;;;;;7.35;5.20;;;12.00;84.90;;;;;;5087933;28;20410;-73
2022/04/19 00:08:39;;;;;;;8.50;4.90;;;11.90;85.10;;;;;;5087978;28;20417;-73
2022/04/19 00:11:04;;;;;;;7.13;4.75;;;12.00;84.50;;;;;;5088791;28;21045;-73
2022/04/19 00:13:31;;;;;;;6.15;4.72;;;12.00;84.10;;;;;;5089222;28;20760;-73
2022/04/19 00:15:58;;;;;;;6.53;4.78;;;12.00;84.40;;;;;;5070955;28;20412;-73
2022/04/19 00:18:25;;;;;;;6.43;4.63;;;12.00;84.50;;;;;;5088650;28;20780;-73
2022/04/19 00:20:50;;;;;;;7.30;4.65;;;12.00;84.90;;;;;;5088465;28;20476;-73
2022/04/19 00:23:16;;;;;;;7.23;4.77;;;11.90;87.20;;;;;;5087246;28;20849;-73
2022/04/19 00:25:44;;;;;;;6.07;4.40;;;11.90;86.60;;;;;;5088637;28;20414;-73
2022/04/19 00:28:11;;;;;;;7.32;4.72;;;11.90;86.60;;;;;;5088703;28;20424;-73
2022/04/19 00:30:36;;;;;;;6.18;4.35;;;11.90;86.50;;;;;;5089049;28;20409;-73
2022/04/19 00:33:03;;;;;;;6.63;4.73;;;11.80;87.00;;;;;;5090984;28;20402;-73
2022/04/19 00:35:29;;;;;;;8.98;4.93;;;11.80;87.60;;;;;;5107261;28;20474;-73
2022/04/19 00:37:54;;;;;;;7.33;4.80;;;11.70;87.50;;;;;;5108803;28;20842;-73
2022/04/19 00:40:20;;;;;;;7.55;4.68;;;11.70;87.90;;;;;;5107775;28;20477;-73
2022/04/19 00:42:47;;;;;;;6.00;4.70;;;11.70;88.90;;;;;;5108638;28;20790;-74
2022/04/19 00:45:13;;;;;;;9.48;5.38;;;11.50;89.30;;;;;;5108545;28;20408;-73
2022/04/19 00:47:39;;;;;;;7.25;5.28;;;11.40;90.30;;;;;;5108461;28;20396;-73
2022/04/19 00:50:07;;;;;;;8.05;5.43;;;11.40;90.70;;;;;;5108400;28;20407;-73
2022/04/19 00:52:34;;;;;;;8.10;5.50;;;11.40;91.50;;;;;;5106331;28;20512;-73
2022/04/19 00:55:02;;;;;;;8.23;5.78;;;11.30;92.40;;;;;;5107823;28;20447;-73
2022/04/19 00:57:28;;;;;;;8.15;5.70;;;11.40;92.60;;;;;;5107745;28;20461;-73
2022/04/19 00:59:56;;;;;;;8.55;5.63;;;11.30;93.00;;;;;;5108087;28;20445;-73
2022/04/19 01:02:23;;;;;;;7.22;5.75;;;11.30;93.60;;;;;;5107138;28;20786;-73
2022/04/19 01:04:49;;;;;;;7.65;5.65;;;11.20;94.10;;;;;;5108442;28;20436;-73
2022/04/19 01:07:18;;;;;;;8.77;6.10;;;11.10;94.70;;;;;;5107384;28;20975;-73
2022/04/19 01:09:45;;;;;;;8.73;5.57;;;11.00;95.20;;;;;;5108518;28;20408;-73
2022/04/19 01:14:56;;;;;;;8.80;6.22;;;10.80;96.20;;;;;;5088132;28;20413;-74
2022/04/19 01:17:23;;;;;;;8.73;6.18;;;10.80;96.40;;;;;;5086450;28;20410;-73
2022/04/19 01:19:49;;;;;;;9.10;6.47;;;10.80;96.50;;;;;;5087004;28;20414;-73
2022/04/19 01:22:15;;;;;;;8.30;6.05;;;10.70;97.20;;;;;;5087332;28;20426;-73
2022/04/19 01:24:43;;;;;;;8.00;5.90;;;10.60;97.90;;;;;;5086379;28;20409;-73
2022/04/19 01:27:10;;;;;;;8.68;6.40;;;10.60;98.10;;;;;;5086532;28;20488;-73
2022/04/19 01:29:36;;;;;;;8.37;6.27;;;10.50;98.30;;;;;;5087715;28;20429;-73
2022/04/19 01:32:05;;;;;;;8.87;5.87;;;10.50;98.00;;;;;;5087435;28;20792;-73
2022/04/19 01:34:31;;;;;;;9.93;6.65;;;10.50;98.00;;;;;;5087881;28;20413;-73
2022/04/19 01:36:57;;;;;;;9.30;6.87;;;10.40;98.20;;;;;;5086291;28;20406;-73
2022/04/19 01:42:07;;;;;;;7.70;5.90;;;10.40;98.60;;;;;;5086340;28;20478;-73
2022/04/19 01:44:33;;;;;;;10.13;6.35;;;10.30;98.90;;;;;;5086046;28;20471;-74
2022/04/19 01:47:05;;;;;;;9.52;6.28;;;10.30;99.00;;;;;;5086578;28;20405;-73
2022/04/19 01:49:31;;;;;;;10.05;6.45;;;10.30;99.10;;;;;;5086645;28;20821;-73
2022/04/19 01:51:56;;;;;;;9.13;6.40;;;10.30;99.20;;;;;;5087577;28;20402;-73
2022/04/19 01:54:22;;;;;;;7.63;5.90;;;10.20;99.20;;;;;;5086279;28;20516;-73
2022/04/19 01:56:48;;;;;;;8.93;6.50;;;10.20;99.50;;;;;;5087628;28;20456;-73
2022/04/19 01:59:13;;;;;;;7.80;6.25;;;10.20;99.70;;;;;;5087555;28;20405;-73
2022/04/19 02:01:39;;;;;;;9.03;6.60;;;10.20;99.70;;;;;;5087245;28;20401;-73
2022/04/19 02:04:05;;;;;;;8.88;6.38;;;10.20;99.70;;;;;;5086542;28;20538;-73
2022/04/19 02:06:31;;;;;;;10.13;6.93;;;10.20;99.60;;;;;;5087277;28;20806;-73
2022/04/19 02:08:57;;;;;;;9.88;6.65;;;10.20;99.90;;;;;;5087384;28;20402;-73
2022/04/19 02:11:26;;;;;;;9.50;6.70;;;10.20;99.90;;;;;;5087450;28;20471;-74
2022/04/19 02:13:51;;;;;;;9.68;7.00;;;10.20;99.90;;;;;;5086536;28;20859;-73
2022/04/19 02:16:19;;;;;;;10.35;6.97;;;10.20;99.90;;;;;;5085987;28;20394;-74
2022/04/19 02:18:44;;;;;;;10.60;7.00;;;10.20;99.90;;;;;;5087293;28;20830;-74
2022/04/19 02:21:10;;;;;;;10.37;6.83;;;10.10;99.90;;;;;;5087200;28;20405;-73
2022/04/19 02:23:35;;;;;;;9.70;6.88;;;10.10;99.90;;;;;;5085696;28;20498;-73
2022/04/19 02:26:02;;;;;;;8.80;6.77;;;10.00;99.90;;;;;;5085818;28;20417;-73
2022/04/19 02:28:28;;;;;;;10.45;7.30;;;10.00;99.90;;;;;;5087204;28;20437;-73
2022/04/19 02:30:54;;;;;;;9.48;7.07;;;10.00;99.90;;;;;;5090371;28;20434;-73
2022/04/19 02:33:20;;;;;;;9.90;7.30;;;10.00;99.90;;;;;;5090628;28;20406;-73
2022/04/19 02:35:45;;;;;;;11.48;7.20;;;9.90;99.90;;;;;;5090535;28;20406;-73
2022/04/19 02:38:11;;;;;;;10.25;7.20;;;9.90;99.90;;;;;;5089685;28;20410;-73
2022/04/19 02:40:36;;;;;;;10.73;7.50;;;9.90;99.90;;;;;;5090774;28;20402;-73
2022/04/19 02:43:02;;;;;;;12.93;7.90;;;9.90;99.90;;;;;;5090607;28;20426;-73
2022/04/19 02:45:28;;;;;;;12.37;7.57;;;9.90;99.90;;;;;;5088795;28;20402;-73
2022/04/19 02:48:08;;;;;;;11.48;8.07;;;9.90;99.90;;;;;;5089773;28;20406;-73
2022/04/19 02:50:40;;;;;;;12.52;7.63;;;9.80;99.90;;;;;;5089915;28;20406;-73
2022/04/19 02:53:06;;;;;;;11.25;7.75;;;9.80;99.90;;;;;;5089087;28;20402;-73
2022/04/19 02:55:32;;;;;;;13.98;8.00;;;9.80;99.90;;;;;;5090376;28;20382;-73
2022/04/19 02:57:58;;;;;;;11.70;7.67;;;9.80;99.90;;;;;;5090571;28;20409;-73
2022/04/19 03:00:24;;;;;;;13.65;8.40;;;9.80;99.90;;;;;;5090294;28;20409;-73
2022/04/19 03:02:50;;;;;;;12.93;7.80;;;9.80;99.90;;;;;;5090475;28;20430;-73
2022/04/19 03:05:17;;;;;;;12.97;7.90;;;9.80;99.90;;;;;;5089767;28;20733;-73
2022/04/19 03:07:42;;;;;;;11.95;8.05;;;9.70;99.90;;;;;;5090312;28;20892;-73
2022/04/19 03:10:09;;;;;;;12.03;7.97;;;9.70;99.90;;;;;;5089207;28;20406;-73
2022/04/19 03:12:34;;;;;;;12.53;8.23;;;9.80;99.90;;;;;;5090255;28;20456;-73
2022/04/19 03:15:00;;;;;;;12.02;7.68;;;9.70;99.90;;;;;;5089966;28;20786;-73
2022/04/19 03:17:26;;;;;;;11.85;7.47;;;9.70;99.90;;;;;;5088192;28;20409;-74
2022/04/19 03:19:52;;;;;;;11.90;7.70;;;9.70;99.90;;;;;;5088725;28;20462;-73
2022/04/19 03:22:18;;;;;;;13.13;8.10;;;9.70;99.90;;;;;;5089486;28;20430;-74
2022/04/19 03:27:42;;;;;;;11.55;8.20;;;9.70;99.90;;;;;;5088702;28;20938;-74
2022/04/19 03:30:12;;;;;;;12.33;8.57;;;9.70;99.90;;;;;;5088124;28;20745;-74
2022/04/19 03:32:37;;;;;;;13.60;8.60;;;9.60;99.90;;;;;;5089889;28;20819;-73
2022/04/19 03:35:03;;;;;;;11.53;8.33;;;9.60;99.90;;;;;;5088673;28;20402;-73
2022/04/19 03:37:30;;;;;;;12.13;8.50;;;9.50;99.90;;;;;;5089130;28;20459;-73
2022/04/19 03:39:56;;;;;;;14.02;8.65;;;9.50;99.90;;;;;;5071634;28;20402;-73
2022/04/19 03:42:24;;;;;;;13.37;8.50;;;9.40;99.90;;;;;;5089246;28;20417;-73
2022/04/19 03:44:49;;;;;;;13.85;8.63;;;9.40;99.90;;;;;;5089740;28;20398;-73
2022/04/19 03:47:15;;;;;;;13.57;8.57;;;9.40;99.90;;;;;;5088049;28;20401;-73
2022/04/19 03:49:44;;;;;;;13.17;8.67;;;9.40;99.90;;;;;;5089321;28;21087;-73
2022/04/19 03:52:10;;;;;;;13.43;8.82;;;9.40;99.90;;;;;;5089550;28;20871;-73
2022/04/19 03:54:37;;;;;;;12.57;8.70;;;9.30;99.90;;;;;;5088122;28;20420;-74
2022/04/19 03:57:05;;;;;;;13.23;8.60;;;9.30;99.90;;;;;;5089363;28;20398;-74
2022/04/19 03:59:31;;;;;;;13.93;8.70;;;9.20;99.90;;;;;;5088841;28;20772;-74
2022/04/19 04:01:58;;;;;;;12.70;8.75;;;9.20;99.90;;;;;;5089192;28;20447;-74
2022/04/19 04:04:26;;;;;;;16.13;9.63;;;9.10;99.90;;;;;;5089314;28;20410;-73
2022/04/19 04:06:52;;;;;;;13.85;8.98;;;9.00;99.90;;;;;;5089138;28;20398;-73
2022/04/19 04:09:17;;;;;;;15.07;9.18;;;9.00;99.90;;;;;;5088732;28;20402;-74
2022/04/19 04:11:43;;;;;;;12.47;8.63;;;9.00;99.90;;;;;;5088964;28;20405;-73
2022/04/19 04:14:08;;;;;;;13.75;8.90;;;9.10;99.90;;;;;;5087842;28;20406;-73
2022/04/19 04:16:34;;;;;;;15.10;9.27;;;9.00;99.90;;;;;;5087408;28;20776;-74
2022/04/19 04:18:59;;;;;;;15.48;9.57;;;9.00;99.90;;;;;;5087280;28;20402;-74
2022/04/19 04:21:25;;;;;;;15.47;9.23;;;9.00;99.90;;;;;;5088418;28;20398;-74
2022/04/19 04:23:50;;;;;;;13.33;8.97;;;9.00;99.90;;;;;;5088836;28;20762;-73
2022/04/19 04:26:16;;;;;;;14.10;8.60;;;9.00;99.90;;;;;;5087621;28;20417;-74
2022/04/19 04:28:42;;;;;;;12.87;8.87;;;9.00;99.90;;;;;;5088564;28;20397;-74
2022/04/19 04:31:07;;;;;;;13.75;9.13;;;9.00;99.90;;;;;;5087754;28;20405;-73
2022/04/19 04:33:33;;;;;;;13.73;8.57;;;9.00;99.90;;;;;;5087337;28;20406;-73
2022/04/19 04:35:58;;;;;;;13.63;8.48;;;9.00;99.90;;;;;;5088356;28;20413;-73
2022/04/19 04:38:24;;;;;;;12.37;8.37;;;9.00;99.90;;;;;;5086801;28;20409;-73
2022/04/19 04:40:49;;;;;;;13.00;8.35;;;9.00;99.90;;;;;;5073125;28;20559;-73
2022/04/19 04:43:15;;;;;;;13.70;8.87;;;9.00;99.90;;;;;;5089387;28;20478;-73
2022/04/19 04:45:41;;;;;;;13.20;8.88;;;9.00;99.90;;;;;;5104094;28;20408;-74
2022/04/19 04:50:51;;;;;;;14.02;9.20;;;9.00;99.90;;;;;;5098101;28;21148;-74
2022/04/19 04:53:16;;;;;;;13.73;9.05;;;9.00;99.90;;;;;;5096856;28;20420;-75
2022/04/19 04:55:42;;;;;;;14.13;8.63;;;8.90;99.90;;;;;;5104431;28;20427;-73
2022/04/19 04:58:09;;;;;;;13.25;9.07;;;8.90;99.90;;;;;;5107273;28;20423;-73
2022/04/19 05:00:35;;;;;;;13.68;8.75;;;8.90;99.90;;;;;;5108470;28;20443;-73
2022/04/19 05:03:00;;;;;;;13.02;8.95;;;8.90;99.90;;;;;;5107522;28;20554;-73
2022/04/19 05:05:26;;;;;;;13.77;8.87;;;8.90;99.90;;;;;;5108267;28;20407;-74
2022/04/19 05:07:52;;;;;;;15.82;9.30;;;8.90;99.90;;;;;;5108458;28;20400;-73
2022/04/19 05:10:17;;;;;;;12.07;8.33;;;8.90;99.90;;;;;;5106972;28;20400;-73
2022/04/19 05:12:43;;;;;;;14.50;9.02;;;9.00;99.90;;;;;;5108538;28;20407;-73
2022/04/19 05:15:09;;;;;;;14.10;8.40;;;9.00;99.90;;;;;;5106892;28;20397;-73
2022/04/19 05:17:35;;;;;;;12.52;8.38;;;9.00;99.90;;;;;;5108307;28;21060;-74
2022/04/19 05:20:01;;;;;;;13.27;8.77;;;9.10;99.90;;;;;;5108353;28;20533;-74
2022/04/19 05:22:26;;;;;;;11.15;8.05;;;9.10;99.90;;;;;;5088938;28;20505;-74
2022/04/19 05:24:52;;;;;;;11.57;7.80;;;9.20;99.90;;;;;;5088012;28;20859;-74
2022/04/19 05:27:18;;;;;;;12.15;7.70;;;9.20;99.90;;;;;;5087536;28;20769;-74
2022/04/19 05:29:43;;;;;;;13.33;7.67;;;9.30;99.90;;;;;;5087992;28;20401;-74
2022/04/19 05:32:09;;;;;;;12.80;7.88;;;9.30;99.90;;;;;;5069992;28;20493;-74
2022/04/19 05:34:35;;;;;;;13.45;7.82;;;9.40;99.90;;;;;;5086913;28;20410;-74
2022/04/19 05:37:00;;;;;;;12.00;8.30;;;9.40;99.90;;;;;;5087623;28;20398;-74
2022/04/19 05:39:26;;;;;;;13.95;8.07;;;9.50;99.90;;;;;;5087242;28;20427;-74
2022/04/19 05:41:52;;;;;;;11.80;8.13;;;9.50;99.90;;;;;;5087399;28;20734;-74
2022/04/19 05:44:17;;;;;;;12.52;7.88;;;9.60;99.90;;;;;;5087658;28;20813;-74
2022/04/19 05:46:43;;;;;;;12.43;7.80;;;9.60;99.90;;;;;;5086407;28;20409;-74
2022/04/19 05:49:08;;;;;;;11.93;7.72;;;9.70;99.90;;;;;;5087293;28;20406;-74
2022/04/19 05:51:34;;;;;;;10.80;7.40;;;9.80;99.90;;;;;;5087104;28;20406;-74
2022/04/19 05:54:00;;;;;;;13.73;7.25;;;9.80;99.90;;;;;;5087435;28;20394;-74
2022/04/19 05:56:26;;;;;;;12.05;7.38;;;9.90;99.90;;;;;;5087283;28;20406;-74
2022/04/19 05:58:52;;;;;;;11.55;7.07;;;10.00;99.90;;;;;;5086860;28;20402;-74
2022/04/19 06:01:18;;;;;;;12.40;7.40;;;10.10;99.90;;;;;;5087591;28;20394;-74
2022/04/19 06:06:29;;;;;;;10.93;7.03;;;10.20;99.90;;;;;;5090429;28;20967;-74
2022/04/19 06:08:55;;;;;;;11.98;7.38;;;10.20;99.90;;;;;;5089759;28;20394;-74
2022/04/19 06:11:21;;;;;;;10.80;6.53;;;10.30;99.90;;;;;;5090671;28;20425;-74
2022/04/19 06:13:47;;;;;;;11.48;6.85;;;10.30;99.90;;;;;;5091221;28;20401;-74
2022/04/19 06:16:13;;;;;;;11.07;7.20;;;10.40;99.90;;;;;;5091564;28;20402;-74
2022/04/19 06:18:39;;;;;;;11.15;6.65;;;10.40;99.90;;;;;;5091079;28;20494;-74
2022/04/19 06:21:05;;;;;;;9.95;6.18;;;10.40;99.90;;;;;;5096685;28;20392;-74
2022/04/19 06:23:34;;;;;;;10.30;6.27;;;10.40;99.90;;;;;;5109835;28;20445;-75
2022/04/19 06:26:00;;;;;;;10.70;6.55;;;10.40;99.90;;;;;;5093317;28;20400;-74
2022/04/19 06:28:26;;;;;;;11.07;6.22;;;10.50;99.90;;;;;;5111192;28;20396;-74
2022/04/19 06:30:52;;;;;;;9.70;6.32;;;10.50;99.90;;;;;;5111236;28;20445;-75
2022/04/19 06:33:17;;;;;;;9.30;6.03;;;10.50;99.90;;;;;;5109484;28;20412;-74
2022/04/19 06:35:43;;;;;;;9.70;6.10;;;10.60;99.90;;;;;;5110104;28;20808;-73
2022/04/19 06:38:09;;;;;;;8.77;5.55;;;10.60;99.90;;;;;;5111021;28;20491;-73
2022/04/19 06:40:35;;;;;;;9.45;5.65;;;10.60;99.90;;;;;;5110953;28;21047;-74
2022/04/19 06:43:02;;;;;;;8.70;4.80;;;10.70;99.90;;;;;;5109634;28;20432;-76
2022/04/19 06:45:28;;;;;;;6.63;4.53;;;10.80;99.90;;;;;;5092877;28;20846;-77
2022/04/19 06:47:58;;;;;;;6.90;4.93;;;10.80;99.70;;;;;;5092658;28;21230;-74
2022/04/19 06:50:24;;;;;;;7.82;4.80;;;10.80;99.50;;;;;;5110723;28;20967;-75
2022/04/19 06:52:51;;;;;;;6.93;4.55;;;10.90;99.50;;;;;;5109214;28;20392;-75
2022/04/19 06:55:18;;;;;;;7.43;4.90;;;10.90;99.50;;;;;;5110732;28;20509;-76
2022/04/19 06:57:44;;;;;;;7.80;4.95;;;11.00;99.80;;;;;;5109560;28;20457;-75
2022/04/19 07:00:09;;;;;;;7.90;4.90;;;11.00;99.70;;;;;;5110768;28;20400;-75
2022/04/19 07:02:36;;;;;;;8.15;5.18;;;11.10;99.50;;;;;;5110472;28;20424;-74
2022/04/19 07:05:01;;;;;;;8.77;5.68;;;11.10;99.20;;;;;;5108945;28;20400;-76
2022/04/19 07:07:27;;;;;;;8.02;5.15;;;11.10;99.40;;;;;;5110636;28;20737;-74
2022/04/19 07:09:53;;;;;;;7.97;5.13;;;11.20;99.70;;;;;;5110568;28;20457;-75
2022/04/19 07:12:19;;;;;;;8.20;4.88;;;11.20;99.20;;;;;;5110384;28;20487;-76
2022/04/19 07:14:44;;;;;;;8.38;5.00;;;11.30;99.30;;;;;;5110548;28;20404;-74
2022/04/19 07:17:10;;;;;;;7.00;4.83;;;11.30;98.80;;;;;;5109750;28;20397;-76
2022/04/19 07:27:49;;;;;;;5.72;3.80;;;11.60;98.40;;;;;;5089921;28;20825;-74
2022/04/19 07:30:16;;;;;;;5.87;3.80;;;11.60;97.50;;;;;;5088584;28;20406;-75
2022/04/19 07:32:42;;;;;;;6.55;4.32;;;11.60;97.40;;;;;;5089500;28;20406;-74
2022/04/19 07:35:08;;;;;;;6.32;3.80;;;11.70;97.10;;;;;;5089596;28;21038;-74
2022/04/19 07:37:34;;;;;;;6.45;4.10;;;11.70;96.50;;;;;;5089767;28;20481;-74
2022/04/19 07:39:59;;;;;;;5.10;3.60;;;11.70;96.90;;;;;;5089935;28;20539;-74
2022/04/19 07:42:25;;;;;;;5.77;3.70;;;11.80;96.70;;;;;;5087826;28;20796;-74
2022/04/19 07:44:51;;;;;;;5.95;3.63;;;11.80;96.40;;;;;;5088178;28;20435;-74
2022/04/19 07:47:18;;;;;;;5.43;3.87;;;11.90;96.20;;;;;;5089363;28;20398;-73
2022/04/19 07:49:43;;;;;;;5.30;3.22;;;11.90;95.70;;;;;;5088662;28;20769;-74
2022/04/19 07:52:09;;;;;;;5.72;3.33;;;12.00;95.80;;;;;;5089507;28;20413;-74
2022/04/19 07:54:36;;;;;;;4.30;3.10;;;12.10;96.00;;;;;;5089362;28;20917;-74
2022/04/19 07:57:02;;;;;;;4.53;3.30;;;12.10;95.60;;;;;;5088984;28;20412;-74
2022/04/19 07:59:27;;;;;;;4.72;3.40;;;12.20;96.00;;;;;;5089080;28;21137;-74
2022/04/19 08:01:53;;;;;;;5.00;3.28;;;12.20;96.10;;;;;;5088808;28;20398;-74
2022/04/19 08:04:20;;;;;;;4.60;2.90;;;12.30;96.20;;;;;;5089211;28;20968;-74
2022/04/19 08:06:46;;;;;;;4.05;2.60;;;12.30;96.20;;;;;;5087782;28;20406;-77
2022/04/19 08:09:11;;;;;;;4.90;2.67;;;12.40;95.30;;;;;;5088494;28;20459;-76
2022/04/19 08:11:37;;;;;;;4.40;2.63;;;12.50;95.10;;;;;;5089227;28;20755;-75
2022/04/19 08:14:03;;;;;;;4.13;2.40;;;12.60;95.10;;;;;;5089229;28;20401;-75
2022/04/19 08:16:28;;;;;;;4.30;2.22;;;12.60;94.40;;;;;;5087241;28;21130;-74
2022/04/19 08:18:54;;;;;;;6.03;2.53;;;12.70;93.70;;;;;;5088718;28;20523;-74
2022/04/19 08:21:20;;;;;;;4.30;2.00;;;12.80;94.40;;;;;;5096604;28;20404;-74
2022/04/19 08:23:45;;;;;;;3.33;1.73;;;12.90;93.80;;;;;;5109190;27;20522;-74
2022/04/19 08:26:11;;;;;;;3.33;1.55;;;13.00;93.10;;;;;;5090501;28;20400;-74
2022/04/19 08:28:37;;;;;;;3.43;1.43;;;13.00;91.40;;;;;;5108756;28;20470;-74
2022/04/19 08:31:02;;;;;;;3.17;1.37;;;13.10;91.00;;;;;;5109164;28;20693;-74
2022/04/19 08:33:28;;;;;;;3.67;1.67;;;13.10;91.00;;;;;;5091014;28;20404;-74
2022/04/19 08:35:53;;;;;;;2.33;1.30;;;13.20;91.50;;;;;;5109132;28;20396;-74
2022/04/19 08:38:19;;;;;;;4.18;1.77;;;13.20;91.20;;;;;;5090222;28;20397;-74
2022/04/19 08:40:45;;;;;;;3.67;1.70;;;13.30;90.40;;;;;;5109062;28;20396;-75
2022/04/19 08:43:11;;;;;;;3.08;1.50;;;13.30;89.90;;;;;;5108667;28;20419;-74
2022/04/19 08:45:37;;;;;;;3.28;1.50;;;13.40;90.40;;;;;;5107284;28;20432;-74
2022/04/19 08:48:07;;;;;;;2.85;1.63;;;13.40;90.20;;;;;;5108114;28;20439;-74
2022/04/19 08:50:32;;;;;;;2.80;1.77;;;13.50;90.40;;;;;;5089604;28;20404;-74
2022/04/19 08:58:29;;;;;;;2.80;1.80;;;13.70;89.50;;;;;;5107316;28;20500;-75
2022/04/19 09:00:54;;;;;;;2.85;1.63;;;13.80;87.10;;;;;;5107976;28;20895;-74
2022/04/19 09:03:20;;;;;;;3.15;1.88;;;13.80;88.60;;;;;;5108195;28;20470;-74
2022/04/19 09:05:52;;;;;;;4.50;1.93;;;13.80;87.40;;;;;;5108768;28;20397;-74
2022/04/19 09:08:19;;;;;;;3.92;1.90;;;13.90;87.20;;;;;;5107897;28;20400;-73
2022/04/19 09:10:45;;;;;;;3.88;1.73;;;14.10;88.40;;;;;;5108442;28;20397;-73
2022/04/19 09:13:14;;;;;;;3.88;2.10;;;14.10;87.80;;;;;;5107165;28;20409;-74
2022/04/19 09:15:44;;;;;;;4.20;2.22;;;14.30;86.30;;;;;;5107309;28;20404;-74
2022/04/19 09:18:29;;;;;;;3.38;1.80;;;14.30;85.80;;;;;;5107640;28;20404;-74
2022/04/19 09:20:56;;;;;;;3.03;2.05;;;14.40;85.40;;;;;;5102700;28;20498;-74
2022/04/19 09:23:23;;;;;;;4.57;2.20;;;14.70;86.70;;;;;;5085344;28;20430;-75
2022/04/19 09:25:54;;;;;;;4.45;2.28;;;15.30;84.40;;;;;;5087354;28;20406;-75
2022/04/19 09:28:21;;;;;;;3.65;2.17;;;16.00;81.70;;;;;;5086558;28;20405;-75
2022/04/19 09:30:49;;;;;;;3.33;2.10;;;16.60;80.30;;;;;;5086906;28;20397;-75
2022/04/19 09:33:17;;;;;;;2.77;1.90;;;17.20;76.40;;;;;;5086851;28;20431;-75
2022/04/19 09:35:54;;;;;;;3.15;2.05;;;17.60;76.00;;;;;;5086239;28;20402;-75
2022/04/19 09:38:42;;;;;;;4.10;1.98;;;18.00;73.20;;;;;;5086519;28;20916;-75
2022/04/19 09:41:13;;;;;;;6.25;2.03;;;18.20;69.60;;;;;;5090874;28;20410;-74
2022/04/19 09:43:39;;;;;;;3.53;2.10;;;18.20;66.60;;;;;;5090610;28;20513;-74
2022/04/19 09:46:06;;;;;;;4.73;2.10;;;18.20;67.50;;;;;;5091704;28;20496;-73
2022/04/19 09:48:33;;;;;;;4.70;1.85;;;18.40;68.40;;;;;;5090179;28;20836;-75
2022/04/19 09:51:06;;;;;;;3.55;2.50;;;18.70;67.90;;;;;;5090475;28;20467;-76
2022/04/19 09:53:42;;;;;;;4.32;2.40;;;18.90;65.10;;;;;;5091548;28;20771;-75
2022/04/19 09:56:13;;;;;;;3.63;2.50;;;19.20;66.10;;;;;;5090825;28;20794;-75
2022/04/19 09:58:41;;;;;;;3.75;2.50;;;19.30;62.60;;;;;;5090052;28;20437;-75
2022/04/19 10:01:07;;;;;;;4.00;2.47;;;19.40;62.90;;;;;;5091557;28;20394;-75
2022/04/19 10:09:04;;;;;;;4.25;2.60;;;19.00;59.00;;;;;;5091104;28;20433;-75
2022/04/19 10:11:30;;;;;;;4.43;2.63;;;18.80;59.20;;;;;;5091132;28;20949;-75
2022/04/19 10:13:57;;;;;;;3.63;2.70;;;18.70;59.80;;;;;;5090042;28;20402;-75
2022/04/19 10:16:24;;;;;;;4.07;2.63;;;18.90;60.40;;;;;;5091245;28;20402;-75
2022/04/19 10:18:50;;;;;;;4.72;2.58;;;19.20;61.00;;;;;;5091274;28;20390;-75
2022/04/19 10:21:28;;;;;;;4.10;2.60;;;19.60;60.80;;;;;;5098060;28;20394;-75
2022/04/19 10:24:11;;;;;;;6.50;2.78;;;20.10;59.70;;;;;;5093045;28;20434;-75
2022/04/19 10:26:48;;;;;;;4.22;2.20;;;20.30;57.30;;;;;;5111532;28;20411;-75
2022/04/19 10:29:22;;;;;;;3.42;2.10;;;20.40;57.30;;;;;;5110863;28;20393;-73
2022/04/19 10:32:02;;;;;;;3.83;2.30;;;20.60;54.50;;;;;;5111501;28;20400;-74
2022/04/19 10:34:30;;;;;;;3.17;2.30;;;20.30;54.50;;;;;;5111263;28;20838;-75
2022/04/19 10:36:59;;;;;;;3.50;2.10;;;20.40;56.90;;;;;;5111283;28;20404;-75
2022/04/19 10:39:32;;;;;;;3.65;2.10;;;20.60;55.80;;;;;;5109988;28;20396;-75
2022/04/19 10:42:03;;;;;;;3.30;2.10;;;20.70;54.30;;;;;;5111016;28;20488;-75
2022/04/19 10:44:36;;;;;;;3.30;2.28;;;20.80;55.00;;;;;;5092988;28;20898;-75
2022/04/19 10:47:19;;;;;;;2.93;2.10;;;20.80;55.10;;;;;;5110202;28;20774;-75
2022/04/19 10:49:55;;;;;;;3.37;2.00;;;21.10;56.20;;;;;;5109625;28;20408;-75
2022/04/19 10:52:44;;;;;;;2.78;2.10;;;21.40;55.00;;;;;;5110608;28;20404;-75
2022/04/19 10:55:10;;;;;;;2.85;2.20;;;21.50;53.00;;;;;;5101755;28;20404;-75
2022/04/19 11:00:29;;;;;;;5.80;2.25;;;21.50;52.30;;;;;;5110496;28;20489;-74
2022/04/19 11:03:18;;;;;;;3.33;2.10;;;21.30;51.40;;;;;;5110890;27;20428;-74
2022/04/19 11:05:55;;;;;;;3.40;2.20;;;21.30;50.70;;;;;;5109120;28;20400;-76
2022/04/19 11:08:27;;;;;;;3.10;2.28;;;21.20;51.60;;;;;;5110503;28;20408;-75
2022/04/19 11:10:55;;;;;;;3.78;2.38;;;21.30;51.60;;;;;;5109000;28;20480;-75
2022/04/19 11:13:29;;;;;;;3.53;2.23;;;21.30;51.20;;;;;;5092490;28;20454;-75
2022/04/19 11:16:12;;;;;;;3.92;1.80;;;21.40;51.80;;;;;;5110277;28;20436;-75
2022/04/19 11:18:37;;;;;;;3.08;2.20;;;21.50;51.60;;;;;;5109231;28;20413;-76
2022/04/19 11:21:05;;;;;;;4.57;1.90;;;21.60;50.00;;;;;;5104501;28;20421;-75
2022/04/19 11:23:50;;;;;;;4.33;1.73;;;21.70;50.20;;;;;;5089480;28;20418;-75
2022/04/19 11:26:33;;;;;;;3.00;1.80;;;21.80;49.60;;;;;;5089867;28;20463;-74
2022/04/19 11:29:11;;;;;;;4.03;1.75;;;22.10;50.80;;;;;;5089626;28;20417;-75
2022/04/19 11:31:39;;;;;;;5.13;2.30;;;22.00;49.90;;;;;;5089763;28;20422;-74
2022/04/19 11:34:12;;;;;;;3.30;1.90;;;22.10;49.40;;;;;;5089619;28;20510;-75
2022/04/19 11:36:38;;;;;;;4.18;1.95;;;22.10;48.80;;;;;;5088538;28;20485;-75
2022/04/19 11:39:03;;;;;;;2.45;1.75;;;22.10;49.50;;;;;;5088887;28;20539;-75
2022/04/19 11:46:51;;;;;;;2.80;2.00;;;22.20;47.50;;;;;;5089545;28;20483;-75
2022/04/19 11:49:19;;;;;;;4.35;2.47;;;22.20;47.80;;;;;;5089303;28;20421;-74
2022/04/19 11:51:52;;;;;;;3.35;1.83;;;22.00;46.70;;;;;;5088080;28;20410;-74
2022/04/19 11:54:19;;;;;;;2.67;1.70;;;21.90;48.40;;;;;;5089202;28;20808;-74
2022/04/19 11:56:45;;;;;;;3.90;1.90;;;21.90;47.10;;;;;;5088093;28;20444;-74
2022/04/19 11:59:11;;;;;;;2.73;1.60;;;22.00;47.90;;;;;;5088250;28;20410;-75
2022/04/19 12:01:37;;;;;;;3.72;1.52;;;22.30;47.10;;;;;;5088658;28;21049;-75
2022/04/19 12:04:13;;;;;;;2.87;1.70;;;22.50;46.80;;;;;;5088955;28;20418;-75
2022/04/19 12:06:44;;;;;;;2.40;1.60;;;22.40;45.90;;;;;;5087254;28;20406;-75
2022/04/19 12:09:14;;;;;;;5.65;1.98;;;22.30;46.50;;;;;;5087770;28;20485;-74
2022/04/19 12:11:41;;;;;;;2.92;1.80;;;22.40;47.40;;;;;;5087731;28;20485;-74
2022/04/19 12:14:07;;;;;;;2.70;1.80;;;22.50;46.70;;;;;;5071103;28;20986;-74
2022/04/19 12:16:34;;;;;;;3.13;2.08;;;22.60;47.00;;;;;;5087211;28;20421;-75
2022/04/19 12:19:07;;;;;;;2.83;2.17;;;22.60;47.10;;;;;;5088034;28;20402;-75
2022/04/19 12:21:44;;;;;;;3.15;1.92;;;22.80;47.80;;;;;;5098518;28;20416;-74
2022/04/19 12:24:20;;;;;;;3.35;2.30;;;23.00;47.70;;;;;;5107801;28;21104;-75
2022/04/19 12:27:04;;;;;;;3.78;2.40;;;23.10;46.40;;;;;;5109024;28;20416;-74
2022/04/19 12:29:30;;;;;;;3.92;2.28;;;23.30;47.00;;;;;;5108293;28;20440;-73
2022/04/19 12:32:00;;;;;;;3.43;2.20;;;23.30;46.20;;;;;;5109025;28;20432;-74
2022/04/19 12:34:36;;;;;;;5.45;2.30;;;23.30;44.70;;;;;;5107726;28;20934;-73
2022/04/19 12:37:07;;;;;;;3.25;2.20;;;23.00;44.70;;;;;;5109245;28;20408;-74
2022/04/19 12:39:33;;;;;;;5.15;2.17;;;22.90;45.30;;;;;;5107351;28;20914;-74
2022/04/19 12:42:10;;;;;;;4.07;2.00;;;23.00;46.60;;;;;;5107272;28;20402;-74
2022/04/19 12:44:37;;;;;;;4.07;2.50;;;23.30;46.70;;;;;;5107520;28;20441;-74
2022/04/19 12:47:18;;;;;;;4.05;2.10;;;23.40;44.40;;;;;;5107635;28;20411;-74
2022/04/19 12:49:46;;;;;;;3.80;2.37;;;23.40;45.30;;;;;;5108477;28;20393;-74
2022/04/19 12:52:14;;;;;;;3.15;2.33;;;23.50;44.80;;;;;;5107599;28;20423;-74
2022/04/19 12:54:46;;;;;;;3.25;2.42;;;23.40;44.40;;;;;;5106428;28;20404;-74
2022/04/19 12:57:15;;;;;;;3.77;2.70;;;23.40;45.00;;;;;;5108418;28;20878;-74
2022/04/19 12:59:44;;;;;;;3.67;2.80;;;23.40;44.70;;;;;;5108496;28;20491;-74
2022/04/19 13:02:13;;;;;;;3.53;2.75;;;23.40;44.30;;;;;;5108483;28;20392;-73
2022/04/19 13:04:39;;;;;;;4.77;2.70;;;23.50;45.60;;;;;;5108406;28;20470;-73
2022/04/19 13:12:33;;;;;;;4.75;3.35;;;23.70;42.60;;;;;;5108062;28;20498;-74
2022/04/19 13:15:01;;;;;;;6.28;3.60;;;23.70;43.90;;;;;;5107645;28;20399;-74
2022/04/19 13:17:30;;;;;;;5.30;3.13;;;23.80;42.90;;;;;;5106643;28;20401;-74
2022/04/19 13:19:56;;;;;;;4.78;3.25;;;24.00;44.20;;;;;;5107882;28;20395;-73
2022/04/19 13:22:21;;;;;;;4.67;3.07;;;24.30;43.70;;;;;;5090466;28;20406;-74
2022/04/19 13:24:50;;;;;;;5.82;2.70;;;24.50;42.50;;;;;;5069526;28;20441;-75
2022/04/19 13:27:16;;;;;;;4.65;2.72;;;24.70;43.20;;;;;;5087827;28;20406;-74
2022/04/19 13:29:42;;;;;;;5.00;2.10;;;24.90;43.30;;;;;;5087735;28;20408;-78
2022/04/19 13:32:08;;;;;;;4.85;2.80;;;25.00;43.50;;;;;;5086148;28;20401;-74
2022/04/19 13:34:34;;;;;;;4.53;2.95;;;24.90;41.20;;;;;;5087471;28;20492;-74